createdAt,value
2019-03-08T00:00:26.501Z,61.60
2019-03-08T00:02:57.431Z,61.90
2019-03-08T00:05:27.563Z,61.90
2019-03-08T00:07:59.233Z,62.00
2019-03-08T00:10:30.909Z,62.20
2019-03-08T00:13:01.559Z,62.00
2019-03-08T00:15:31.843Z,62.50
2019-03-08T00:18:02.207Z,62.60
2019-03-08T00:20:32.321Z,63.00
2019-03-08T00:23:04.917Z,62.60
2019-03-08T00:25:35.118Z,62.50
2019-03-08T00:28:05.271Z,62.20
2019-03-08T00:30:35.490Z,62.10
2019-03-08T00:33:06.658Z,62.40
2019-03-08T00:35:36.992Z,61.60
2019-03-08T00:38:07.453Z,61.90
2019-03-08T00:40:37.753Z,61.10
2019-03-08T00:43:08.298Z,60.40
2019-03-08T00:45:38.534Z,59.90
2019-03-08T00:48:09.989Z,59.40
2019-03-08T00:50:40.216Z,59.00
2019-03-08T00:53:10.370Z,58.70
2019-03-08T00:55:41.128Z,58.40
2019-03-08T00:58:11.706Z,58.70
2019-03-08T01:00:44.557Z,57.70
2019-03-08T01:03:15.058Z,57.50
2019-03-08T01:05:45.422Z,57.50
2019-03-08T01:08:16.224Z,57.30
2019-03-08T01:10:46.434Z,57.30
2019-03-08T01:13:17.434Z,57.20
2019-03-08T01:15:49.372Z,57.20
2019-03-08T01:18:20.183Z,57.10
2019-03-08T01:20:52.038Z,57.10
2019-03-08T01:23:22.563Z,57.10
2019-03-08T01:25:52.978Z,57.10
2019-03-08T01:28:23.459Z,57.10
2019-03-08T01:30:54.107Z,56.50
2019-03-08T01:33:24.230Z,57.00
2019-03-08T01:35:54.711Z,57.00
2019-03-08T01:38:25.452Z,57.00
2019-03-08T01:40:56.720Z,57.10
2019-03-08T01:43:27.380Z,57.10
2019-03-08T01:45:57.810Z,57.00
2019-03-08T01:48:28.409Z,57.00
2019-03-08T01:50:58.865Z,57.10
2019-03-08T01:53:29.575Z,57.10
2019-03-08T01:55:59.911Z,57.10
2019-03-08T01:58:30.909Z,57.00
2019-03-08T02:01:02.197Z,57.00
2019-03-08T02:03:34.524Z,57.30
2019-03-08T02:06:04.690Z,57.10
2019-03-08T02:08:35.331Z,57.20
2019-03-08T02:11:07.135Z,57.40
2019-03-08T02:13:37.364Z,57.60
2019-03-08T02:16:07.802Z,57.90
2019-03-08T02:18:41.082Z,57.90
2019-03-08T02:21:13.915Z,57.90
2019-03-08T02:23:44.673Z,58.00
2019-03-08T02:26:14.999Z,58.00
2019-03-08T02:28:46.344Z,58.30
2019-03-08T02:31:16.925Z,58.20
2019-03-08T02:33:48.383Z,58.50
2019-03-08T02:36:18.707Z,58.10
2019-03-08T02:38:49.429Z,58.40
2019-03-08T02:41:21.259Z,58.40
2019-03-08T02:43:54.931Z,58.40
2019-03-08T02:46:26.480Z,58.10
2019-03-08T02:48:58.065Z,58.40
2019-03-08T02:51:28.592Z,58.50
2019-03-08T02:53:59.231Z,58.30
2019-03-08T02:56:29.704Z,58.50
2019-03-08T02:59:02.415Z,58.50
2019-03-08T03:01:32.670Z,58.10
2019-03-08T03:04:04.522Z,58.00
2019-03-08T03:06:34.817Z,58.20
2019-03-08T03:09:07.131Z,58.10
2019-03-08T03:11:39.346Z,57.70
2019-03-08T03:14:10.044Z,57.70
2019-03-08T03:16:41.882Z,57.90
2019-03-08T03:19:15.305Z,58.10
2019-03-08T03:21:45.763Z,58.20
2019-03-08T03:24:17.294Z,58.50
2019-03-08T03:26:47.748Z,58.60
2019-03-08T03:29:19.804Z,59.10
2019-03-08T03:31:50.060Z,59.40
2019-03-08T03:34:24.057Z,59.70
2019-03-08T03:36:54.318Z,60.30
2019-03-08T03:39:24.790Z,60.70
2019-03-08T03:41:55.014Z,61.10
2019-03-08T03:44:26.761Z,61.30
2019-03-08T03:46:57.557Z,61.60
2019-03-08T03:49:28.124Z,61.60
2019-03-08T03:51:58.827Z,61.80
2019-03-08T03:54:29.367Z,61.80
2019-03-08T03:56:59.794Z,62.20
2019-03-08T03:59:30.772Z,62.00
2019-03-08T04:02:01.069Z,62.30
2019-03-08T04:04:31.523Z,62.40
2019-03-08T04:07:01.997Z,62.40
2019-03-08T04:09:32.631Z,62.40
2019-03-08T04:12:03.118Z,62.80
2019-03-08T04:14:33.650Z,62.80
2019-03-08T04:17:04.059Z,62.80
2019-03-08T04:19:34.514Z,62.80
2019-03-08T04:22:04.756Z,62.90
2019-03-08T04:24:35.105Z,62.80
2019-03-08T04:27:05.697Z,62.80
2019-03-08T04:29:36.144Z,63.30
2019-03-08T04:32:07.823Z,63.10
2019-03-08T04:34:38.317Z,63.00
2019-03-08T04:37:10.821Z,63.10
2019-03-08T04:39:53.295Z,63.40
2019-03-08T04:42:23.507Z,63.70
2019-03-08T04:44:53.974Z,63.80
2019-03-08T04:47:24.166Z,63.80
2019-03-08T04:49:55.593Z,64.00
2019-03-08T04:52:26.931Z,63.90
2019-03-08T04:54:57.862Z,64.20
2019-03-08T04:57:27.988Z,64.40
2019-03-08T04:59:58.822Z,64.80
2019-03-08T05:02:28.980Z,64.70
2019-03-08T05:04:59.432Z,64.50
2019-03-08T05:07:29.960Z,64.30
2019-03-08T05:10:00.070Z,64.60
2019-03-08T05:12:31.099Z,64.40
2019-03-08T05:15:01.565Z,64.00
2019-03-08T05:17:32.027Z,64.40
2019-03-08T05:20:02.197Z,64.30
2019-03-08T05:22:33.176Z,64.40
2019-03-08T05:27:34.007Z,63.70
2019-03-08T05:30:04.968Z,64.00
2019-03-08T05:32:35.217Z,64.80
2019-03-08T05:35:06.535Z,64.00
2019-03-08T05:37:36.897Z,64.10
2019-03-08T05:40:08.873Z,64.40
2019-03-08T05:42:39.873Z,64.00
2019-03-08T05:45:10.974Z,64.40
2019-03-08T05:47:41.314Z,64.20
2019-03-08T05:50:11.779Z,62.60
2019-03-08T05:52:42.585Z,65.00
2019-03-08T05:55:13.008Z,65.40
2019-03-08T06:00:14.397Z,65.60
2019-03-08T06:02:46.551Z,66.10
2019-03-08T06:05:16.687Z,65.70
2019-03-08T06:07:47.419Z,66.00
2019-03-08T06:10:31.700Z,65.80
2019-03-08T06:13:02.632Z,67.20
2019-03-08T06:15:35.514Z,66.90
2019-03-08T06:18:06.283Z,67.20
2019-03-08T06:20:37.222Z,68.10
2019-03-08T06:23:08.059Z,67.40
2019-03-08T06:28:10.345Z,69.30
2019-03-08T06:30:40.982Z,66.20
2019-03-08T06:33:12.527Z,67.40
2019-03-08T06:35:42.863Z,66.90
2019-03-08T06:38:13.966Z,68.00
2019-03-08T06:40:44.541Z,68.60
2019-03-08T06:43:15.129Z,68.50
2019-03-08T06:45:45.724Z,68.80
2019-03-08T06:50:46.110Z,70.70
2019-03-08T06:53:16.467Z,70.40
2019-03-08T06:55:47.242Z,71.30
2019-03-08T07:01:11.898Z,70.40
2019-03-08T07:03:42.239Z,70.70
2019-03-08T07:06:14.959Z,70.80
2019-03-08T07:08:45.269Z,69.60
2019-03-08T07:11:16.355Z,70.00
2019-03-08T07:13:48.554Z,69.90
2019-03-08T07:16:22.218Z,71.20
2019-03-08T07:18:52.394Z,71.80
2019-03-08T07:21:37.202Z,70.90
2019-03-08T07:24:26.333Z,70.70
2019-03-08T07:27:12.727Z,70.00
2019-03-08T07:30:00.303Z,70.30
2019-03-08T07:32:48.733Z,70.40
2019-03-08T07:35:31.192Z,71.20
2019-03-08T07:38:32.374Z,71.60
2019-03-08T07:41:30.945Z,73.90
2019-03-08T07:44:18.577Z,71.90
2019-03-08T07:46:55.568Z,72.50
2019-03-08T07:49:43.792Z,72.70
2019-03-08T07:52:31.693Z,73.80
2019-03-08T07:55:21.327Z,72.20
2019-03-08T07:58:00.162Z,72.00
2019-03-08T08:00:54.129Z,72.40
2019-03-08T08:06:17.828Z,73.20
2019-03-08T08:11:54.555Z,73.60
2019-03-08T08:14:52.602Z,73.90
2019-03-08T08:17:45.479Z,74.30
2019-03-08T08:20:27.035Z,73.80
2019-03-08T08:23:15.434Z,74.50
2019-03-08T08:26:16.745Z,73.50
2019-03-08T08:28:55.915Z,73.10
2019-03-08T08:31:44.002Z,72.90
2019-03-08T08:34:25.713Z,73.30
2019-03-08T08:37:13.231Z,73.00
2019-03-08T08:40:01.627Z,72.40
2019-03-08T08:42:38.369Z,72.90
2019-03-08T08:45:31.069Z,72.80
2019-03-08T08:48:20.523Z,71.80
2019-03-08T08:51:20.502Z,73.00
2019-03-08T08:53:59.621Z,74.20
2019-03-08T08:56:51.885Z,74.20
2019-03-08T08:59:43.911Z,74.70
2019-03-08T09:02:36.130Z,72.80
2019-03-08T09:05:34.431Z,72.20
2019-03-08T09:08:22.131Z,71.40
2019-03-08T09:11:15.059Z,71.20
2019-03-08T09:13:51.891Z,71.00
2019-03-08T09:16:39.757Z,71.40
2019-03-08T09:19:29.305Z,71.90
2019-03-08T09:22:24.651Z,72.10
2019-03-08T09:25:06.713Z,72.70
2019-03-08T09:27:58.948Z,71.00
2019-03-08T09:30:50.601Z,72.90
2019-03-08T09:33:27.904Z,71.60
2019-03-08T09:36:29.444Z,72.20
2019-03-08T09:39:27.825Z,73.00
2019-03-08T09:42:11.276Z,73.40
2019-03-08T09:45:06.710Z,72.40
2019-03-08T09:48:01.807Z,72.70
2019-03-08T09:50:41.811Z,72.40
2019-03-08T09:53:32.937Z,72.70
2019-03-08T09:56:25.226Z,72.60
2019-03-08T09:59:13.044Z,69.60
2019-03-08T10:02:14.022Z,70.20
2019-03-08T10:05:09.702Z,70.60
2019-03-08T10:07:59.059Z,71.00
2019-03-08T10:10:48.632Z,71.60
2019-03-08T10:13:41.495Z,70.50
2019-03-08T10:16:24.544Z,71.10
2019-03-08T10:19:25.100Z,69.10
2019-03-08T10:22:24.290Z,70.20
2019-03-08T10:25:18.207Z,70.50
2019-03-08T10:27:57.245Z,69.70
2019-03-08T10:30:39.726Z,69.60
2019-03-08T10:36:16.463Z,68.60
2019-03-08T10:38:52.565Z,69.30
2019-03-08T10:41:33.613Z,66.90
2019-03-08T10:44:23.272Z,65.80
2019-03-08T10:47:08.594Z,66.10
2019-03-08T10:50:10.005Z,66.90
2019-03-08T10:52:47.701Z,67.30
2019-03-08T10:55:36.147Z,66.70
2019-03-08T10:58:13.125Z,66.30
2019-03-08T11:00:57.648Z,67.00
2019-03-08T11:03:46.330Z,66.60
2019-03-08T11:06:38.501Z,65.20
2019-03-08T11:09:49.941Z,65.80
2019-03-08T11:12:46.190Z,64.00
2019-03-08T11:15:34.219Z,64.20
2019-03-08T11:18:21.986Z,65.00
2019-03-08T11:24:02.225Z,62.70
2019-03-08T11:27:04.990Z,64.00
2019-03-08T11:29:49.297Z,64.90
2019-03-08T11:32:28.833Z,63.90
2019-03-08T11:35:21.132Z,63.80
2019-03-08T11:38:19.648Z,64.20
2019-03-08T11:41:14.766Z,62.00
2019-03-08T11:44:18.863Z,63.30
2019-03-08T11:47:06.387Z,62.90
2019-03-08T11:49:56.796Z,63.00
2019-03-08T11:52:50.646Z,63.40
2019-03-08T11:55:45.606Z,63.30
2019-03-08T11:58:35.142Z,63.80
2019-03-08T12:01:17.488Z,63.60
2019-03-08T12:04:03.638Z,63.20
2019-03-08T12:07:02.196Z,64.00
2019-03-08T12:09:44.676Z,63.80
2019-03-08T12:12:34.293Z,65.10
2019-03-08T12:15:26.358Z,65.50
2019-03-08T12:18:11.230Z,65.10
2019-03-08T12:20:48.380Z,65.30
2019-03-08T12:23:46.950Z,65.20
2019-03-08T12:26:36.048Z,65.10
2019-03-08T12:29:28.291Z,64.90
2019-03-08T12:32:17.681Z,64.30
2019-03-08T12:35:21.764Z,63.70
2019-03-08T12:38:17.458Z,63.30
2019-03-08T12:41:15.657Z,62.40
2019-03-08T12:44:03.492Z,61.30
2019-03-08T12:47:04.973Z,61.80
2019-03-08T12:49:55.562Z,60.80
2019-03-08T12:52:51.142Z,61.20
2019-03-08T12:55:39.845Z,61.20
2019-03-08T12:58:38.139Z,60.20
2019-03-08T13:01:39.066Z,60.80
2019-03-08T13:04:28.298Z,61.80
2019-03-08T13:07:11.951Z,61.50
2019-03-08T13:09:47.492Z,61.00
2019-03-08T13:12:19.518Z,61.20
2019-03-08T13:14:49.787Z,60.10
2019-03-08T13:17:22.218Z,60.00
2019-03-08T13:19:52.451Z,59.10
2019-03-08T13:22:23.225Z,61.30
2019-03-08T13:24:53.526Z,61.80
2019-03-08T13:27:24.173Z,62.10
2019-03-08T13:29:54.953Z,61.60
2019-03-08T13:32:25.765Z,61.00
2019-03-08T13:34:56.268Z,61.70
2019-03-08T13:37:27.985Z,60.50
2019-03-08T13:39:58.304Z,59.90
2019-03-08T13:42:29.202Z,59.40
2019-03-08T13:44:59.502Z,59.70
2019-03-08T13:47:29.769Z,59.60
2019-03-08T13:53:23.246Z,59.80
2019-03-08T13:55:53.895Z,60.00
2019-03-08T14:00:54.849Z,60.10
2019-03-08T14:03:28.982Z,61.70
2019-03-08T14:06:00.119Z,60.20
2019-03-08T14:08:30.323Z,60.70
2019-03-08T14:11:00.550Z,60.90
2019-03-08T14:13:31.173Z,60.70
2019-03-08T14:16:01.853Z,60.30
2019-03-08T14:18:32.659Z,61.40
2019-03-08T14:21:04.259Z,61.90
2019-03-08T14:23:34.960Z,62.30
2019-03-08T14:26:05.779Z,62.10
2019-03-08T14:28:38.339Z,62.10
2019-03-08T14:31:20.876Z,62.00
2019-03-08T14:33:52.473Z,61.70
2019-03-08T14:36:22.984Z,62.00
2019-03-08T14:38:53.296Z,61.90
2019-03-08T14:41:46.250Z,63.00
2019-03-08T14:44:26.374Z,62.70
2019-03-08T14:47:04.201Z,63.00
2019-03-08T14:49:34.485Z,62.10
2019-03-08T14:52:06.143Z,62.10
2019-03-08T14:54:36.693Z,63.00
2019-03-08T14:57:09.231Z,61.60
2019-03-08T14:59:39.843Z,62.00
2019-03-08T15:02:13.592Z,62.50
2019-03-08T15:04:44.127Z,61.70
2019-03-08T15:07:16.839Z,62.20
2019-03-08T15:09:48.409Z,62.70
2019-03-08T15:12:19.770Z,61.80
2019-03-08T15:14:50.418Z,62.60
2019-03-08T15:17:20.900Z,62.30
2019-03-08T15:19:51.107Z,61.90
2019-03-08T15:22:23.913Z,60.60
2019-03-08T15:24:54.901Z,60.60
2019-03-08T15:27:25.778Z,60.40
2019-03-08T15:29:56.072Z,59.90
2019-03-08T15:32:27.103Z,56.20
2019-03-08T15:34:57.843Z,56.80
2019-03-08T15:37:28.766Z,56.40
2019-03-08T15:39:59.307Z,54.20
2019-03-08T15:42:29.612Z,54.10
2019-03-08T15:45:01.918Z,55.00
2019-03-08T15:47:32.684Z,54.40
2019-03-08T15:50:08.309Z,54.80
2019-03-08T15:52:37.136Z,54.40
2019-03-08T15:55:08.409Z,54.10
2019-03-08T15:57:39.059Z,54.30
2019-03-08T16:00:17.224Z,54.70
2019-03-08T16:02:48.453Z,55.30
2019-03-08T16:05:23.967Z,56.60
2019-03-08T16:07:57.730Z,56.80
2019-03-08T16:10:28.059Z,57.80
2019-03-08T16:12:59.880Z,58.40
2019-03-08T16:15:31.540Z,59.00
2019-03-08T16:18:04.569Z,60.90
2019-03-08T16:20:37.638Z,60.10
2019-03-08T16:23:13.037Z,59.00
2019-03-08T16:25:47.915Z,58.20
2019-03-08T16:28:18.991Z,56.90
2019-03-08T16:30:53.524Z,55.80
2019-03-08T16:33:28.853Z,56.20
2019-03-08T16:36:05.704Z,54.30
2019-03-08T16:39:00.450Z,53.30
2019-03-08T16:41:51.613Z,50.40
2019-03-08T16:44:40.021Z,51.60
2019-03-08T16:47:27.398Z,52.00
2019-03-08T16:50:07.415Z,53.30
2019-03-08T16:52:59.865Z,53.70
2019-03-08T16:55:49.494Z,55.00
2019-03-08T16:58:50.843Z,56.20
2019-03-08T17:01:39.545Z,57.70
2019-03-08T17:04:29.117Z,58.10
2019-03-08T17:07:06.182Z,59.10
2019-03-08T17:09:54.008Z,59.20
2019-03-08T17:12:33.064Z,59.90
2019-03-08T17:15:16.871Z,60.30
2019-03-08T17:18:11.566Z,59.90
2019-03-08T17:21:02.541Z,61.00
2019-03-08T17:26:31.471Z,61.70
2019-03-08T17:29:19.573Z,61.10
2019-03-08T17:32:14.701Z,61.30
2019-03-08T17:35:13.212Z,61.80
2019-03-08T17:37:58.469Z,62.20
2019-03-08T17:40:54.795Z,62.60
2019-03-08T17:43:33.140Z,63.40
2019-03-08T17:46:13.067Z,65.20
2019-03-08T17:49:14.524Z,65.00
2019-03-08T17:52:05.664Z,65.50
2019-03-08T17:54:55.439Z,65.40
2019-03-08T17:58:01.443Z,67.50
2019-03-08T18:00:43.509Z,66.80
2019-03-08T18:03:25.477Z,67.20
2019-03-08T18:06:18.827Z,68.60
2019-03-08T18:09:04.642Z,67.80
2019-03-08T18:11:48.353Z,68.30
2019-03-08T18:14:43.387Z,68.20
2019-03-08T18:17:51.289Z,68.30
2019-03-08T18:20:31.366Z,68.40
2019-03-08T18:23:20.163Z,69.00
2019-03-08T18:26:07.893Z,68.80
2019-03-08T18:29:02.081Z,68.70
2019-03-08T18:32:09.664Z,68.70
2019-03-08T18:38:03.265Z,67.50
2019-03-08T18:41:10.731Z,68.50
2019-03-08T18:46:59.952Z,68.60
2019-03-08T18:50:09.993Z,68.30
2019-03-08T18:52:58.233Z,68.60
2019-03-08T18:55:53.834Z,67.70
2019-03-08T18:58:43.265Z,68.40
2019-03-08T19:01:31.173Z,67.70
2019-03-08T19:04:14.158Z,67.80
2019-03-08T19:07:23.152Z,68.40
2019-03-08T19:10:28.125Z,66.40
2019-03-08T19:13:17.337Z,66.10
2019-03-08T19:16:03.526Z,64.60
2019-03-08T19:18:59.699Z,64.70
2019-03-08T19:21:40.742Z,64.50
2019-03-08T19:24:41.754Z,64.70
2019-03-08T19:27:29.642Z,65.00
2019-03-08T19:30:24.699Z,64.20
2019-03-08T19:36:22.229Z,62.70
2019-03-08T19:39:09.077Z,63.40
2019-03-08T19:42:03.586Z,63.20
2019-03-08T19:44:41.882Z,61.50
2019-03-08T19:50:04.635Z,61.50
2019-03-08T19:52:52.281Z,61.60
2019-03-08T19:55:32.669Z,61.40
2019-03-08T20:01:37.393Z,64.60
2019-03-08T20:04:23.822Z,65.30
2019-03-08T20:07:15.701Z,66.50
2019-03-08T20:12:31.108Z,67.20
2019-03-08T20:15:15.411Z,68.20
2019-03-08T20:18:03.663Z,68.20
2019-03-08T20:21:02.190Z,68.80
2019-03-08T20:23:42.159Z,68.80
2019-03-08T20:26:30.033Z,69.10
2019-03-08T20:29:11.653Z,69.20
2019-03-08T20:32:03.736Z,69.60
2019-03-08T20:34:56.103Z,69.60
2019-03-08T20:37:44.473Z,69.80
2019-03-08T20:40:33.958Z,70.00
2019-03-08T20:43:15.263Z,69.70
2019-03-08T20:45:53.106Z,69.70
2019-03-08T20:48:23.472Z,69.60
2019-03-08T20:50:53.994Z,70.40
2019-03-08T20:53:24.286Z,69.70
2019-03-08T20:55:54.740Z,70.30
2019-03-08T20:58:25.013Z,70.50
2019-03-08T21:00:56.022Z,70.90
2019-03-08T21:03:26.446Z,71.10
2019-03-08T21:05:57.303Z,71.30
2019-03-08T21:08:27.812Z,71.30
2019-03-08T21:11:00.634Z,72.00
2019-03-08T21:13:31.046Z,72.00
2019-03-08T21:16:02.206Z,72.00
2019-03-08T21:18:32.621Z,72.40
2019-03-08T21:21:03.431Z,72.80
2019-03-08T21:23:34.160Z,72.50
2019-03-08T21:28:34.149Z,72.20
2019-03-08T21:31:04.827Z,72.50
2019-03-08T21:33:35.070Z,72.60
2019-03-08T21:36:06.434Z,72.10
2019-03-08T21:41:06.871Z,72.30
2019-03-08T21:43:37.193Z,73.10
2019-03-08T21:46:08.228Z,72.70
2019-03-08T21:48:38.562Z,72.50
2019-03-08T21:51:08.952Z,72.00
2019-03-08T21:53:39.398Z,72.40
2019-03-08T21:58:39.747Z,71.40
2019-03-08T22:01:10.030Z,72.10
2019-03-08T22:03:40.794Z,71.60
2019-03-08T22:06:12.497Z,71.30
2019-03-08T22:08:53.114Z,71.30
2019-03-08T22:11:31.260Z,70.80
2019-03-08T22:14:01.879Z,71.60
2019-03-08T22:16:34.826Z,71.10
2019-03-08T22:19:05.124Z,70.80
2019-03-08T22:21:35.811Z,70.90
2019-03-08T22:24:13.085Z,70.30
2019-03-08T22:26:38.923Z,70.20
2019-03-08T22:29:10.436Z,69.60
2019-03-08T22:31:42.607Z,70.80
2019-03-08T22:34:13.345Z,69.10
2019-03-08T22:36:44.482Z,69.60
2019-03-08T22:39:16.287Z,69.20
2019-03-08T22:41:46.921Z,69.60
2019-03-08T22:44:18.246Z,69.00
2019-03-08T22:46:48.850Z,69.40
2019-03-08T22:49:19.086Z,69.40
2019-03-08T22:51:49.455Z,69.60
2019-03-08T22:54:20.078Z,69.40
2019-03-08T22:56:50.903Z,68.60
2019-03-08T22:59:22.254Z,69.00
2019-03-08T23:01:55.575Z,68.90
2019-03-08T23:04:25.942Z,68.60
2019-03-08T23:06:56.189Z,69.00
2019-03-08T23:09:26.482Z,68.30
2019-03-08T23:11:56.981Z,67.40
2019-03-08T23:14:27.392Z,68.00
2019-03-08T23:16:59.259Z,67.10
2019-03-08T23:19:29.578Z,67.20
2019-03-08T23:21:59.891Z,67.70
2019-03-08T23:24:30.343Z,67.80
2019-03-08T23:27:31.632Z,68.40
2019-03-08T23:30:11.154Z,69.30
2019-03-08T23:32:44.772Z,70.10
2019-03-08T23:35:15.045Z,70.50
2019-03-08T23:37:45.689Z,71.80
2019-03-08T23:40:16.119Z,72.50
2019-03-08T23:42:46.747Z,73.10
2019-03-08T23:45:16.994Z,74.40
2019-03-08T23:50:17.987Z,74.80
2019-03-08T23:52:49.375Z,76.00
2019-03-08T23:55:20.299Z,76.40
2019-03-08T23:57:50.783Z,76.00
